Weather at Aratika-Perles Airport

Public forecast

Using degrees Celsius for public forecast. Weather courtesy of forecast.io.

Closest aviation weather report (METAR) to Aratika-Perles Airport

Closest report is Faa'a International Airport, 263.4 nm (487.8 km) WSW.

2024/07/22 10:30 (retrieved 36 minutes ago)

NTAA 221030Z AUTO 07004KT 9999 BKN062 21/16 Q1017 NOSIG

Closest aviation forecast (TAF) to Aratika-Perles Airport

Closest forecast is Faa'a International Airport, 263.4 nm (487.8 km) WSW.

2024/07/22 06:07 (retrieved 5 hours ago)

TAF NTAA 220500Z 2206/2312 VRB03KT 9999 FEW023 SCT065 PROB30 TEMPO 2220/2302 04013KT